sensor_id;sensor_type;location;lat;lon;timestamp;temperature;humidity
21121;DHT22;12519;43.318;21.898;2024-02-04T00:08:45;6.2;95.0
21121;DHT22;12519;43.318;21.898;2024-02-04T00:13:21;6.2;95.0
21121;DHT22;12519;43.318;21.898;2024-02-04T00:17:57;6.2;95.0
21121;DHT22;12519;43.318;21.898;2024-02-04T00:22:33;6.2;95.0
21121;DHT22;12519;43.318;21.898;2024-02-04T00:27:09;6.2;95.0
21121;DHT22;12519;43.318;21.898;2024-02-04T00:31:45;6.2;95.0
21121;DHT22;12519;43.318;21.898;2024-02-04T00:36:21;6.2;95.0
21121;DHT22;12519;43.318;21.898;2024-02-04T00:40:57;6.2;95.0
21121;DHT22;12519;43.318;21.898;2024-02-04T00:45:33;6.1;95.0
21121;DHT22;12519;43.318;21.898;2024-02-04T00:50:10;6.1;95.0
21121;DHT22;12519;43.318;21.898;2024-02-04T00:54:46;6.0;95.0
21121;DHT22;12519;43.318;21.898;2024-02-04T00:59:22;6.0;95.0
21121;DHT22;12519;43.318;21.898;2024-02-04T01:03:58;6.0;95.0
21121;DHT22;12519;43.318;21.898;2024-02-04T01:08:34;5.8;96.0
21121;DHT22;12519;43.318;21.898;2024-02-04T01:13:11;5.8;96.0
21121;DHT22;12519;43.318;21.898;2024-02-04T01:17:47;5.6;96.0
21121;DHT22;12519;43.318;21.898;2024-02-04T01:22:23;5.6;96.0
21121;DHT22;12519;43.318;21.898;2024-02-04T01:26:59;5.9;96.0
21121;DHT22;12519;43.318;21.898;2024-02-04T01:31:35;5.9;96.0
21121;DHT22;12519;43.318;21.898;2024-02-04T01:36:12;6.2;96.0
21121;DHT22;12519;43.318;21.898;2024-02-04T01:40:48;6.2;96.0
21121;DHT22;12519;43.318;21.898;2024-02-04T01:45:24;6.2;96.0
21121;DHT22;12519;43.318;21.898;2024-02-04T01:50:03;6.2;96.0
21121;DHT22;12519;43.318;21.898;2024-02-04T01:54:44;6.3;95.0
21121;DHT22;12519;43.318;21.898;2024-02-04T01:59:24;6.3;95.0
21121;DHT22;12519;43.318;21.898;2024-02-04T02:04:01;6.3;95.0
21121;DHT22;12519;43.318;21.898;2024-02-04T02:08:42;6.2;95.0
21121;DHT22;12519;43.318;21.898;2024-02-04T02:13:30;6.2;95.0
21121;DHT22;12519;43.318;21.898;2024-02-04T02:18:37;6.2;95.0
21121;DHT22;12519;43.318;21.898;2024-02-04T02:23:42;6.2;95.0
21121;DHT22;12519;43.318;21.898;2024-02-04T02:29:02;6.2;95.0
21121;DHT22;12519;43.318;21.898;2024-02-04T02:33:39;6.2;95.0
21121;DHT22;12519;43.318;21.898;2024-02-04T02:38:38;6.2;96.0
21121;DHT22;12519;43.318;21.898;2024-02-04T02:43:30;6.2;96.0
21121;DHT22;12519;43.318;21.898;2024-02-04T02:48:11;6.4;95.0
21121;DHT22;12519;43.318;21.898;2024-02-04T02:52:48;6.4;95.0
21121;DHT22;12519;43.318;21.898;2024-02-04T02:57:24;6.5;95.0
21121;DHT22;12519;43.318;21.898;2024-02-04T03:02:00;6.5;95.0
21121;DHT22;12519;43.318;21.898;2024-02-04T03:06:37;6.5;95.0
21121;DHT22;12519;43.318;21.898;2024-02-04T03:11:13;6.5;95.0
21121;DHT22;12519;43.318;21.898;2024-02-04T03:15:50;6.5;95.0
21121;DHT22;12519;43.318;21.898;2024-02-04T03:20:26;6.5;95.0
21121;DHT22;12519;43.318;21.898;2024-02-04T03:25:04;6.2;96.0
21121;DHT22;12519;43.318;21.898;2024-02-04T03:29:42;6.2;96.0
21121;DHT22;12519;43.318;21.898;2024-02-04T03:34:18;6.2;96.0
21121;DHT22;12519;43.318;21.898;2024-02-04T03:38:54;5.9;97.0
21121;DHT22;12519;43.318;21.898;2024-02-04T03:43:30;5.9;97.0
21121;DHT22;12519;43.318;21.898;2024-02-04T03:48:07;6.2;97.0
21121;DHT22;12519;43.318;21.898;2024-02-04T03:52:43;6.2;97.0
21121;DHT22;12519;43.318;21.898;2024-02-04T03:57:19;6.4;96.0
21121;DHT22;12519;43.318;21.898;2024-02-04T04:01:55;6.4;96.0
21121;DHT22;12519;43.318;21.898;2024-02-04T04:06:31;6.4;96.0
21121;DHT22;12519;43.318;21.898;2024-02-04T04:11:10;6.4;96.0
21121;DHT22;12519;43.318;21.898;2024-02-04T04:15:47;6.5;95.0
21121;DHT22;12519;43.318;21.898;2024-02-04T04:20:23;6.5;95.0
21121;DHT22;12519;43.318;21.898;2024-02-04T04:24:59;6.3;96.0
21121;DHT22;12519;43.318;21.898;2024-02-04T04:29:35;6.3;96.0
21121;DHT22;12519;43.318;21.898;2024-02-04T04:34:12;6.3;96.0
21121;DHT22;12519;43.318;21.898;2024-02-04T04:38:49;6.1;96.0
21121;DHT22;12519;43.318;21.898;2024-02-04T04:43:25;6.1;96.0
21121;DHT22;12519;43.318;21.898;2024-02-04T04:48:03;5.9;97.0
21121;DHT22;12519;43.318;21.898;2024-02-04T04:52:42;5.9;97.0
21121;DHT22;12519;43.318;21.898;2024-02-04T04:57:19;5.8;97.0
21121;DHT22;12519;43.318;21.898;2024-02-04T05:01:56;5.8;97.0
21121;DHT22;12519;43.318;21.898;2024-02-04T05:06:33;5.9;97.0
21121;DHT22;12519;43.318;21.898;2024-02-04T05:11:09;5.9;97.0
21121;DHT22;12519;43.318;21.898;2024-02-04T05:15:46;6.1;96.0
21121;DHT22;12519;43.318;21.898;2024-02-04T05:20:24;6.1;96.0
21121;DHT22;12519;43.318;21.898;2024-02-04T05:25:00;6.2;96.0
21121;DHT22;12519;43.318;21.898;2024-02-04T05:29:36;6.2;96.0
21121;DHT22;12519;43.318;21.898;2024-02-04T05:34:13;6.2;96.0
21121;DHT22;12519;43.318;21.898;2024-02-04T05:38:49;6.3;96.0
21121;DHT22;12519;43.318;21.898;2024-02-04T05:43:25;6.3;96.0
21121;DHT22;12519;43.318;21.898;2024-02-04T05:48:01;6.7;97.0
21121;DHT22;12519;43.318;21.898;2024-02-04T05:52:38;6.7;97.0
21121;DHT22;12519;43.318;21.898;2024-02-04T05:57:14;7.1;97.0
21121;DHT22;12519;43.318;21.898;2024-02-04T06:01:50;7.1;97.0
21121;DHT22;12519;43.318;21.898;2024-02-04T06:06:26;8.4;93.0
21121;DHT22;12519;43.318;21.898;2024-02-04T06:11:02;8.4;93.0
21121;DHT22;12519;43.318;21.898;2024-02-04T06:15:39;9.6;89.0
21121;DHT22;12519;43.318;21.898;2024-02-04T06:20:15;9.6;89.0
21121;DHT22;12519;43.318;21.898;2024-02-04T06:24:52;9.6;89.0
21121;DHT22;12519;43.318;21.898;2024-02-04T06:29:28;8.4;91.0
21121;DHT22;12519;43.318;21.898;2024-02-04T06:34:04;8.4;91.0
21121;DHT22;12519;43.318;21.898;2024-02-04T06:38:40;7.1;93.0
21121;DHT22;12519;43.318;21.898;2024-02-04T06:43:22;7.1;93.0
21121;DHT22;12519;43.318;21.898;2024-02-04T06:47:58;7.1;93.0
21121;DHT22;12519;43.318;21.898;2024-02-04T06:52:34;7.1;93.0
21121;DHT22;12519;43.318;21.898;2024-02-04T06:57:10;7.1;94.0
21121;DHT22;12519;43.318;21.898;2024-02-04T07:01:46;7.1;94.0
21121;DHT22;12519;43.318;21.898;2024-02-04T07:06:22;7.0;94.0
21121;DHT22;12519;43.318;21.898;2024-02-04T07:10:59;7.0;94.0
21121;DHT22;12519;43.318;21.898;2024-02-04T07:15:36;6.9;94.0
21121;DHT22;12519;43.318;21.898;2024-02-04T07:20:12;6.9;94.0
21121;DHT22;12519;43.318;21.898;2024-02-04T07:24:49;6.9;94.0
21121;DHT22;12519;43.318;21.898;2024-02-04T07:29:26;7.6;94.0
21121;DHT22;12519;43.318;21.898;2024-02-04T07:34:02;7.6;94.0
21121;DHT22;12519;43.318;21.898;2024-02-04T07:38:39;8.2;94.0
21121;DHT22;12519;43.318;21.898;2024-02-04T07:43:16;8.2;94.0
21121;DHT22;12519;43.318;21.898;2024-02-04T07:47:53;8.0;93.0
21121;DHT22;12519;43.318;21.898;2024-02-04T07:52:30;8.0;93.0
21121;DHT22;12519;43.318;21.898;2024-02-04T07:57:06;7.8;93.0
21121;DHT22;12519;43.318;21.898;2024-02-04T08:01:43;7.8;93.0
21121;DHT22;12519;43.318;21.898;2024-02-04T08:06:19;7.4;94.0
21121;DHT22;12519;43.318;21.898;2024-02-04T08:10:55;7.4;94.0
21121;DHT22;12519;43.318;21.898;2024-02-04T08:15:31;7.0;95.0
21121;DHT22;12519;43.318;21.898;2024-02-04T08:20:08;7.0;95.0
21121;DHT22;12519;43.318;21.898;2024-02-04T08:24:45;7.0;95.0
21121;DHT22;12519;43.318;21.898;2024-02-04T08:29:21;7.0;96.0
21121;DHT22;12519;43.318;21.898;2024-02-04T08:33:57;7.0;96.0
21121;DHT22;12519;43.318;21.898;2024-02-04T08:38:33;6.9;96.0
21121;DHT22;12519;43.318;21.898;2024-02-04T08:43:09;6.9;96.0
21121;DHT22;12519;43.318;21.898;2024-02-04T08:47:54;7.2;96.0
21121;DHT22;12519;43.318;21.898;2024-02-04T08:52:31;7.2;96.0
21121;DHT22;12519;43.318;21.898;2024-02-04T08:57:07;7.6;95.0
21121;DHT22;12519;43.318;21.898;2024-02-04T09:01:44;7.6;95.0
21121;DHT22;12519;43.318;21.898;2024-02-04T09:06:20;7.6;95.0
21121;DHT22;12519;43.318;21.898;2024-02-04T09:10:56;7.6;95.0
21121;DHT22;12519;43.318;21.898;2024-02-04T09:15:33;7.6;95.0
21121;DHT22;12519;43.318;21.898;2024-02-04T09:20:11;7.6;95.0
21121;DHT22;12519;43.318;21.898;2024-02-04T09:24:47;7.6;95.0
21121;DHT22;12519;43.318;21.898;2024-02-04T09:29:23;7.6;95.0
21121;DHT22;12519;43.318;21.898;2024-02-04T09:33:59;7.6;95.0
21121;DHT22;12519;43.318;21.898;2024-02-04T09:38:36;7.7;95.0
21121;DHT22;12519;43.318;21.898;2024-02-04T09:43:13;7.7;95.0
21121;DHT22;12519;43.318;21.898;2024-02-04T09:47:53;7.8;95.0
21121;DHT22;12519;43.318;21.898;2024-02-04T09:52:34;7.8;95.0
21121;DHT22;12519;43.318;21.898;2024-02-04T09:57:25;7.9;95.0
21121;DHT22;12519;43.318;21.898;2024-02-04T10:02:07;7.9;95.0
21121;DHT22;12519;43.318;21.898;2024-02-04T10:06:45;8.0;95.0
21121;DHT22;12519;43.318;21.898;2024-02-04T10:11:23;8.0;95.0
21121;DHT22;12519;43.318;21.898;2024-02-04T10:15:59;8.0;95.0
21121;DHT22;12519;43.318;21.898;2024-02-04T10:20:36;8.0;95.0
21121;DHT22;12519;43.318;21.898;2024-02-04T10:25:13;8.0;95.0
21121;DHT22;12519;43.318;21.898;2024-02-04T10:29:50;8.4;95.0
21121;DHT22;12519;43.318;21.898;2024-02-04T10:34:27;8.4;95.0
21121;DHT22;12519;43.318;21.898;2024-02-04T10:39:04;8.7;95.0
21121;DHT22;12519;43.318;21.898;2024-02-04T10:43:43;8.7;95.0
21121;DHT22;12519;43.318;21.898;2024-02-04T10:48:29;9.1;93.0
21121;DHT22;12519;43.318;21.898;2024-02-04T10:53:15;9.1;93.0
21121;DHT22;12519;43.318;21.898;2024-02-04T10:57:56;9.5;92.0
21121;DHT22;12519;43.318;21.898;2024-02-04T11:02:36;9.5;92.0
21121;DHT22;12519;43.318;21.898;2024-02-04T11:07:14;9.8;91.0
21121;DHT22;12519;43.318;21.898;2024-02-04T11:12:00;9.8;91.0
21121;DHT22;12519;43.318;21.898;2024-02-04T11:17:31;10.1;90.0
21121;DHT22;12519;43.318;21.898;2024-02-04T11:23:19;10.1;90.0
21121;DHT22;12519;43.318;21.898;2024-02-04T11:28:26;10.4;90.0
21121;DHT22;12519;43.318;21.898;2024-02-04T11:33:06;10.4;90.0
21121;DHT22;12519;43.318;21.898;2024-02-04T11:37:43;10.6;89.0
21121;DHT22;12519;43.318;21.898;2024-02-04T11:42:23;10.6;89.0
21121;DHT22;12519;43.318;21.898;2024-02-04T11:47:06;10.6;89.0
21121;DHT22;12519;43.318;21.898;2024-02-04T11:51:46;10.6;89.0
21121;DHT22;12519;43.318;21.898;2024-02-04T12:10:15;11.7;87.0
21121;DHT22;12519;43.318;21.898;2024-02-04T12:14:53;11.7;87.0
21121;DHT22;12519;43.318;21.898;2024-02-04T12:19:28;11.7;87.0
21121;DHT22;12519;43.318;21.898;2024-02-04T12:24:06;11.7;87.0
21121;DHT22;12519;43.318;21.898;2024-02-04T12:28:43;12.0;88.0
21121;DHT22;12519;43.318;21.898;2024-02-04T12:33:20;12.0;88.0
21121;DHT22;12519;43.318;21.898;2024-02-04T12:38:00;12.3;88.0
21121;DHT22;12519;43.318;21.898;2024-02-04T12:42:37;12.3;88.0
21121;DHT22;12519;43.318;21.898;2024-02-04T12:47:14;12.6;88.0
21121;DHT22;12519;43.318;21.898;2024-02-04T12:52:06;12.6;88.0
21121;DHT22;12519;43.318;21.898;2024-02-04T12:56:48;12.8;87.0
21121;DHT22;12519;43.318;21.898;2024-02-04T13:01:30;12.8;87.0
21121;DHT22;12519;43.318;21.898;2024-02-04T13:06:07;12.9;88.0
21121;DHT22;12519;43.318;21.898;2024-02-04T13:10:53;12.9;88.0
21121;DHT22;12519;43.318;21.898;2024-02-04T13:15:37;12.9;88.0
21121;DHT22;12519;43.318;21.898;2024-02-04T13:20:16;13.0;88.0
21121;DHT22;12519;43.318;21.898;2024-02-04T13:24:52;13.0;88.0
21121;DHT22;12519;43.318;21.898;2024-02-04T13:29:28;13.2;88.0
21121;DHT22;12519;43.318;21.898;2024-02-04T13:34:04;13.2;88.0
21121;DHT22;12519;43.318;21.898;2024-02-04T13:38:40;13.4;88.0
21121;DHT22;12519;43.318;21.898;2024-02-04T13:43:16;13.4;88.0
21121;DHT22;12519;43.318;21.898;2024-02-04T13:47:52;13.6;88.0
21121;DHT22;12519;43.318;21.898;2024-02-04T13:52:28;13.6;88.0
21121;DHT22;12519;43.318;21.898;2024-02-04T13:57:05;13.8;88.0
21121;DHT22;12519;43.318;21.898;2024-02-04T14:01:41;13.8;88.0
21121;DHT22;12519;43.318;21.898;2024-02-04T14:06:18;13.9;87.0
21121;DHT22;12519;43.318;21.898;2024-02-04T14:10:54;13.9;87.0
21121;DHT22;12519;43.318;21.898;2024-02-04T14:15:31;13.9;87.0
21121;DHT22;12519;43.318;21.898;2024-02-04T14:20:09;14.0;87.0
21121;DHT22;12519;43.318;21.898;2024-02-04T14:24:46;14.0;87.0
21121;DHT22;12519;43.318;21.898;2024-02-04T14:29:23;14.1;87.0
21121;DHT22;12519;43.318;21.898;2024-02-04T14:33:59;14.1;87.0
21121;DHT22;12519;43.318;21.898;2024-02-04T14:38:35;14.2;87.0
21121;DHT22;12519;43.318;21.898;2024-02-04T14:43:11;14.2;87.0
21121;DHT22;12519;43.318;21.898;2024-02-04T14:47:47;14.2;87.0
21121;DHT22;12519;43.318;21.898;2024-02-04T14:52:24;14.2;87.0
21121;DHT22;12519;43.318;21.898;2024-02-04T14:57:00;14.1;87.0
21121;DHT22;12519;43.318;21.898;2024-02-04T15:01:36;14.1;87.0
21121;DHT22;12519;43.318;21.898;2024-02-04T15:06:12;13.8;87.0
21121;DHT22;12519;43.318;21.898;2024-02-04T15:10:49;13.8;87.0
21121;DHT22;12519;43.318;21.898;2024-02-04T15:15:27;13.8;87.0
21121;DHT22;12519;43.318;21.898;2024-02-04T15:20:07;13.6;88.0
21121;DHT22;12519;43.318;21.898;2024-02-04T15:24:49;13.6;88.0
21121;DHT22;12519;43.318;21.898;2024-02-04T15:29:29;13.4;89.0
21121;DHT22;12519;43.318;21.898;2024-02-04T15:34:13;13.4;89.0
21121;DHT22;12519;43.318;21.898;2024-02-04T15:38:51;13.3;89.0
21121;DHT22;12519;43.318;21.898;2024-02-04T15:43:28;13.3;89.0
21121;DHT22;12519;43.318;21.898;2024-02-04T15:48:08;13.2;90.0
21121;DHT22;12519;43.318;21.898;2024-02-04T15:52:59;13.2;90.0
21121;DHT22;12519;43.318;21.898;2024-02-04T15:57:42;13.0;90.0
21121;DHT22;12519;43.318;21.898;2024-02-04T16:02:27;13.0;90.0
21121;DHT22;12519;43.318;21.898;2024-02-04T16:07:05;12.8;91.0
21121;DHT22;12519;43.318;21.898;2024-02-04T16:11:56;12.8;91.0
21121;DHT22;12519;43.318;21.898;2024-02-04T16:16:47;12.5;92.0
21121;DHT22;12519;43.318;21.898;2024-02-04T16:21:38;12.5;92.0
21121;DHT22;12519;43.318;21.898;2024-02-04T16:26:14;12.5;92.0
21121;DHT22;12519;43.318;21.898;2024-02-04T16:30:50;12.3;92.0
21121;DHT22;12519;43.318;21.898;2024-02-04T16:35:27;12.3;92.0
21121;DHT22;12519;43.318;21.898;2024-02-04T16:40:05;12.1;92.0
21121;DHT22;12519;43.318;21.898;2024-02-04T16:44:46;12.1;92.0
21121;DHT22;12519;43.318;21.898;2024-02-04T16:49:23;12.0;93.0
21121;DHT22;12519;43.318;21.898;2024-02-04T16:54:03;12.0;93.0
21121;DHT22;12519;43.318;21.898;2024-02-04T16:58:39;11.8;94.0
21121;DHT22;12519;43.318;21.898;2024-02-04T17:03:16;11.8;94.0
21121;DHT22;12519;43.318;21.898;2024-02-04T17:07:55;11.8;94.0
21121;DHT22;12519;43.318;21.898;2024-02-04T17:12:34;11.8;94.0
21121;DHT22;12519;43.318;21.898;2024-02-04T17:17:14;11.7;94.0
21121;DHT22;12519;43.318;21.898;2024-02-04T17:21:57;11.7;94.0
21121;DHT22;12519;43.318;21.898;2024-02-04T17:26:41;12.3;93.0
21121;DHT22;12519;43.318;21.898;2024-02-04T17:31:18;12.3;93.0
21121;DHT22;12519;43.318;21.898;2024-02-04T17:35:55;12.3;93.0
21121;DHT22;12519;43.318;21.898;2024-02-04T17:40:31;12.9;93.0
21121;DHT22;12519;43.318;21.898;2024-02-04T17:45:08;12.9;93.0
21121;DHT22;12519;43.318;21.898;2024-02-04T17:49:46;13.6;89.0
21121;DHT22;12519;43.318;21.898;2024-02-04T17:54:22;13.6;89.0
21121;DHT22;12519;43.318;21.898;2024-02-04T17:58:58;14.4;86.0
21121;DHT22;12519;43.318;21.898;2024-02-04T18:03:34;14.4;86.0
21121;DHT22;12519;43.318;21.898;2024-02-04T18:08:10;13.2;88.0
21121;DHT22;12519;43.318;21.898;2024-02-04T18:12:47;13.2;88.0
21121;DHT22;12519;43.318;21.898;2024-02-04T18:17:25;12.1;90.0
21121;DHT22;12519;43.318;21.898;2024-02-04T18:22:02;12.1;90.0
21121;DHT22;12519;43.318;21.898;2024-02-04T18:26:39;11.8;91.0
21121;DHT22;12519;43.318;21.898;2024-02-04T18:31:17;11.8;91.0
21121;DHT22;12519;43.318;21.898;2024-02-04T18:35:54;11.8;91.0
21121;DHT22;12519;43.318;21.898;2024-02-04T18:40:30;11.5;92.0
21121;DHT22;12519;43.318;21.898;2024-02-04T18:45:07;11.5;92.0
21121;DHT22;12519;43.318;21.898;2024-02-04T18:49:43;11.2;93.0
21121;DHT22;12519;43.318;21.898;2024-02-04T18:54:19;11.2;93.0
21121;DHT22;12519;43.318;21.898;2024-02-04T18:58:55;11.0;94.0
21121;DHT22;12519;43.318;21.898;2024-02-04T19:03:31;11.0;94.0
21121;DHT22;12519;43.318;21.898;2024-02-04T19:08:07;10.9;94.0
21121;DHT22;12519;43.318;21.898;2024-02-04T19:12:43;10.9;94.0
21121;DHT22;12519;43.318;21.898;2024-02-04T19:17:19;10.8;94.0
21121;DHT22;12519;43.318;21.898;2024-02-04T19:21:55;10.8;94.0
21121;DHT22;12519;43.318;21.898;2024-02-04T19:26:32;10.8;94.0
21121;DHT22;12519;43.318;21.898;2024-02-04T19:31:08;10.6;94.0
21121;DHT22;12519;43.318;21.898;2024-02-04T19:35:45;10.6;94.0
21121;DHT22;12519;43.318;21.898;2024-02-04T19:40:22;10.5;94.0
21121;DHT22;12519;43.318;21.898;2024-02-04T19:44:59;10.5;94.0
21121;DHT22;12519;43.318;21.898;2024-02-04T19:49:35;10.2;94.0
21121;DHT22;12519;43.318;21.898;2024-02-04T19:54:11;10.2;94.0
21121;DHT22;12519;43.318;21.898;2024-02-04T19:58:47;10.0;95.0
21121;DHT22;12519;43.318;21.898;2024-02-04T20:03:23;10.0;95.0
21121;DHT22;12519;43.318;21.898;2024-02-04T20:07:59;9.8;95.0
21121;DHT22;12519;43.318;21.898;2024-02-04T20:12:35;9.8;95.0
21121;DHT22;12519;43.318;21.898;2024-02-04T20:17:11;9.7;96.0
21121;DHT22;12519;43.318;21.898;2024-02-04T20:21:47;9.7;96.0
21121;DHT22;12519;43.318;21.898;2024-02-04T20:26:23;9.7;96.0
21121;DHT22;12519;43.318;21.898;2024-02-04T20:31:00;9.6;96.0
21121;DHT22;12519;43.318;21.898;2024-02-04T20:35:36;9.6;96.0
21121;DHT22;12519;43.318;21.898;2024-02-04T20:40:13;9.6;96.0
21121;DHT22;12519;43.318;21.898;2024-02-04T20:44:50;9.6;96.0
21121;DHT22;12519;43.318;21.898;2024-02-04T20:49:26;9.6;96.0
21121;DHT22;12519;43.318;21.898;2024-02-04T20:54:04;9.6;96.0
21121;DHT22;12519;43.318;21.898;2024-02-04T20:58:42;9.5;96.0
21121;DHT22;12519;43.318;21.898;2024-02-04T21:03:19;9.5;96.0
21121;DHT22;12519;43.318;21.898;2024-02-04T21:07:55;9.4;96.0
21121;DHT22;12519;43.318;21.898;2024-02-04T21:12:32;9.4;96.0
21121;DHT22;12519;43.318;21.898;2024-02-04T21:17:09;9.3;96.0
21121;DHT22;12519;43.318;21.898;2024-02-04T21:21:45;9.3;96.0
21121;DHT22;12519;43.318;21.898;2024-02-04T21:26:21;9.3;96.0
21121;DHT22;12519;43.318;21.898;2024-02-04T21:30:57;9.0;97.0
21121;DHT22;12519;43.318;21.898;2024-02-04T21:35:34;9.0;97.0
21121;DHT22;12519;43.318;21.898;2024-02-04T21:40:11;8.8;98.0
21121;DHT22;12519;43.318;21.898;2024-02-04T21:44:48;8.8;98.0
21121;DHT22;12519;43.318;21.898;2024-02-04T21:49:24;8.7;98.0
21121;DHT22;12519;43.318;21.898;2024-02-04T21:54:00;8.7;98.0
21121;DHT22;12519;43.318;21.898;2024-02-04T21:58:37;8.6;98.0
21121;DHT22;12519;43.318;21.898;2024-02-04T22:03:13;8.6;98.0
21121;DHT22;12519;43.318;21.898;2024-02-04T22:07:49;8.4;98.0
21121;DHT22;12519;43.318;21.898;2024-02-04T22:12:26;8.4;98.0
21121;DHT22;12519;43.318;21.898;2024-02-04T22:17:02;8.4;98.0
21121;DHT22;12519;43.318;21.898;2024-02-04T22:21:40;8.3;99.0
21121;DHT22;12519;43.318;21.898;2024-02-04T22:26:16;8.3;99.0
21121;DHT22;12519;43.318;21.898;2024-02-04T22:30:52;8.1;99.0
21121;DHT22;12519;43.318;21.898;2024-02-04T22:35:28;8.1;99.0
21121;DHT22;12519;43.318;21.898;2024-02-04T22:40:07;7.9;100.0
21121;DHT22;12519;43.318;21.898;2024-02-04T22:44:45;7.9;100.0
21121;DHT22;12519;43.318;21.898;2024-02-04T22:49:21;8.4;99.0
21121;DHT22;12519;43.318;21.898;2024-02-04T22:53:57;8.4;99.0
21121;DHT22;12519;43.318;21.898;2024-02-04T22:58:34;9.0;99.0
21121;DHT22;12519;43.318;21.898;2024-02-04T23:03:10;9.0;99.0
21121;DHT22;12519;43.318;21.898;2024-02-04T23:07:47;8.9;98.0
21121;DHT22;12519;43.318;21.898;2024-02-04T23:12:23;8.9;98.0
21121;DHT22;12519;43.318;21.898;2024-02-04T23:17:00;8.9;98.0
21121;DHT22;12519;43.318;21.898;2024-02-04T23:21:36;8.8;97.0
21121;DHT22;12519;43.318;21.898;2024-02-04T23:26:14;8.8;97.0
21121;DHT22;12519;43.318;21.898;2024-02-04T23:30:52;8.8;97.0
21121;DHT22;12519;43.318;21.898;2024-02-04T23:35:28;8.8;97.0
21121;DHT22;12519;43.318;21.898;2024-02-04T23:40:07;8.7;97.0
21121;DHT22;12519;43.318;21.898;2024-02-04T23:44:48;8.7;97.0
21121;DHT22;12519;43.318;21.898;2024-02-04T23:49:25;8.6;97.0
21121;DHT22;12519;43.318;21.898;2024-02-04T23:54:02;8.6;97.0
21121;DHT22;12519;43.318;21.898;2024-02-04T23:58:38;8.6;97.0
